Leesburg, Texas
Current Conditions -  °F | °C
As of 10:15 PM on Sunday 25 Jan 2015 (Local Time) from KOSA Reporting Station
Clear Clear  
Wind Chill: 44°   Ceiling: Unl
Heat Index: 48°   Visibility: 10mi
Dew Point: 30°   Wind: 8mph
Humidity: 50%   Direction: 300°WNW
Pressure: 30.13"   Gusts: NA
Location:  32.99°N, 95.08°W
Report Text: KOSA 260415Z AUTO 30007KT 10SM CLR 09/M01 A3013 RMK AO1 T00881010
Loading
Personal Weather Stations






























Interactive Weather Map New forecast layout! Learn more

10-Day Weather Forecast

Advertisements
Track Severe Weather on mobile